sensor_id;sensor_type;location;lat;lon;timestamp;pressure;altitude;pressure_sealevel;temperature;humidity
50550;BME280;36505;52.512;13.460;2022-09-17T00:01:54;99729.75;;;12.08;84.62
50550;BME280;36505;52.512;13.460;2022-09-17T00:04:19;99734.97;;;12.09;85.30
50550;BME280;36505;52.512;13.460;2022-09-17T00:06:44;99735.78;;;12.10;85.06
50550;BME280;36505;52.512;13.460;2022-09-17T00:09:10;99741.00;;;12.11;85.09
50550;BME280;36505;52.512;13.460;2022-09-17T00:11:38;99745.66;;;12.11;85.53
50550;BME280;36505;52.512;13.460;2022-09-17T00:14:05;99744.31;;;12.13;85.18
50550;BME280;36505;52.512;13.460;2022-09-17T00:16:40;99751.97;;;12.16;85.00
50550;BME280;36505;52.512;13.460;2022-09-17T00:19:09;99741.56;;;12.13;84.62
50550;BME280;36505;52.512;13.460;2022-09-17T00:21:36;99734.69;;;12.11;84.45
50550;BME280;36505;52.512;13.460;2022-09-17T00:24:04;99759.09;;;12.17;84.99
50550;BME280;36505;52.512;13.460;2022-09-17T00:26:30;99758.00;;;12.18;84.84
50550;BME280;36505;52.512;13.460;2022-09-17T00:28:57;99754.44;;;12.18;84.79
50550;BME280;36505;52.512;13.460;2022-09-17T00:31:24;99758.56;;;12.15;85.12
50550;BME280;36505;52.512;13.460;2022-09-17T00:33:50;99756.94;;;12.14;85.11
50550;BME280;36505;52.512;13.460;2022-09-17T00:36:15;99759.38;;;12.16;85.35
50550;BME280;36505;52.512;13.460;2022-09-17T00:38:41;99762.66;;;12.18;85.46
50550;BME280;36505;52.512;13.460;2022-09-17T00:41:07;99756.34;;;12.17;85.12
50550;BME280;36505;52.512;13.460;2022-09-17T00:46:02;99748.69;;;12.09;85.33
50550;BME280;36505;52.512;13.460;2022-09-17T00:48:29;99765.97;;;12.15;85.57
50550;BME280;36505;52.512;13.460;2022-09-17T00:50:55;99764.63;;;12.12;85.32
50550;BME280;36505;52.512;13.460;2022-09-17T00:53:22;99770.94;;;12.13;85.14
50550;BME280;36505;52.512;13.460;2022-09-17T00:55:54;99770.38;;;12.11;85.38
50550;BME280;36505;52.512;13.460;2022-09-17T00:58:22;99782.44;;;12.10;85.29
50550;BME280;36505;52.512;13.460;2022-09-17T01:00:49;99775.03;;;12.10;85.50
50550;BME280;36505;52.512;13.460;2022-09-17T01:03:14;99779.16;;;12.13;85.25
50550;BME280;36505;52.512;13.460;2022-09-17T01:08:37;99779.16;;;12.13;85.71
50550;BME280;36505;52.512;13.460;2022-09-17T01:16:52;99795.34;;;12.14;85.35
50550;BME280;36505;52.512;13.460;2022-09-17T01:23:18;99794.22;;;12.15;84.98
50550;BME280;36505;52.512;13.460;2022-09-17T01:25:43;99796.97;;;12.15;84.81
50550;BME280;36505;52.512;13.460;2022-09-17T01:28:25;99799.44;;;12.17;84.82
50550;BME280;36505;52.512;13.460;2022-09-17T01:41:57;99802.47;;;12.20;84.62
50550;BME280;36505;52.512;13.460;2022-09-17T01:44:33;99799.16;;;12.23;84.51
50550;BME280;36505;52.512;13.460;2022-09-17T01:47:12;99808.75;;;12.26;84.64
50550;BME280;36505;52.512;13.460;2022-09-17T01:49:40;99800.81;;;12.24;84.55
50550;BME280;36505;52.512;13.460;2022-09-17T01:52:08;99805.44;;;12.29;84.54
50550;BME280;36505;52.512;13.460;2022-09-17T01:54:41;99798.59;;;12.26;84.60
50550;BME280;36505;52.512;13.460;2022-09-17T01:57:13;99806.28;;;12.30;84.20
50550;BME280;36505;52.512;13.460;2022-09-17T01:59:45;99811.25;;;12.27;84.17
50550;BME280;36505;52.512;13.460;2022-09-17T02:02:16;99810.13;;;12.23;84.35
50550;BME280;36505;52.512;13.460;2022-09-17T02:04:54;99809.31;;;12.23;84.58
50550;BME280;36505;52.512;13.460;2022-09-17T02:07:24;99815.06;;;12.21;84.60
50550;BME280;36505;52.512;13.460;2022-09-17T02:10:04;99817.25;;;12.30;84.51
50550;BME280;36505;52.512;13.460;2022-09-17T02:12:34;99820.56;;;12.32;84.93
50550;BME280;36505;52.512;13.460;2022-09-17T02:15:06;99820.56;;;12.32;84.75
50550;BME280;36505;52.512;13.460;2022-09-17T02:17:51;99818.34;;;12.34;84.66
50550;BME280;36505;52.512;13.460;2022-09-17T02:20:23;99820.81;;;12.30;85.32
50550;BME280;36505;52.512;13.460;2022-09-17T02:22:54;99829.59;;;12.32;85.65
50550;BME280;36505;52.512;13.460;2022-09-17T02:28:24;99825.47;;;12.30;85.79
50550;BME280;36505;52.512;13.460;2022-09-17T02:30:42;99815.91;;;12.22;85.53
50550;BME280;36505;52.512;13.460;2022-09-17T02:33:11;99832.34;;;12.32;85.67
50550;BME280;36505;52.512;13.460;2022-09-17T02:35:38;99826.59;;;12.34;85.64
50550;BME280;36505;52.512;13.460;2022-09-17T02:38:04;99821.34;;;12.37;85.75
50550;BME280;36505;52.512;13.460;2022-09-17T02:40:34;99815.31;;;12.40;85.91
50550;BME280;36505;52.512;13.460;2022-09-17T02:48:55;99820.00;;;12.40;86.46
50550;BME280;36505;52.512;13.460;2022-09-17T02:55:18;99817.78;;;12.37;86.36
50550;BME280;36505;52.512;13.460;2022-09-17T02:57:23;99818.06;;;12.40;86.30
50550;BME280;36505;52.512;13.460;2022-09-17T02:59:55;99819.13;;;12.44;86.50
50550;BME280;36505;52.512;13.460;2022-09-17T03:02:44;99824.63;;;12.44;86.46
50550;BME280;36505;52.512;13.460;2022-09-17T03:05:13;99822.72;;;12.45;86.24
50550;BME280;36505;52.512;13.460;2022-09-17T03:07:40;99814.50;;;12.40;86.51
50550;BME280;36505;52.512;13.460;2022-09-17T03:10:06;99813.91;;;12.43;86.29
50550;BME280;36505;52.512;13.460;2022-09-17T03:12:32;99809.00;;;12.40;86.29
50550;BME280;36505;52.512;13.460;2022-09-17T03:14:57;99816.13;;;12.46;86.43
50550;BME280;36505;52.512;13.460;2022-09-17T03:17:22;99805.16;;;12.41;86.86
50550;BME280;36505;52.512;13.460;2022-09-17T03:19:47;99817.22;;;12.45;86.53
50550;BME280;36505;52.512;13.460;2022-09-17T03:22:13;99814.47;;;12.45;86.44
50550;BME280;36505;52.512;13.460;2022-09-17T03:24:38;99813.91;;;12.43;86.76
50550;BME280;36505;52.512;13.460;2022-09-17T03:27:04;99818.03;;;12.45;86.38
50550;BME280;36505;52.512;13.460;2022-09-17T03:29:29;99819.13;;;12.44;86.18
50550;BME280;36505;52.512;13.460;2022-09-17T03:31:54;99817.22;;;12.45;86.18
50550;BME280;36505;52.512;13.460;2022-09-17T03:34:20;99813.38;;;12.46;86.22
50550;BME280;36505;52.512;13.460;2022-09-17T03:36:45;99795.28;;;12.40;86.01
50550;BME280;36505;52.512;13.460;2022-09-17T03:39:11;99820.25;;;12.48;86.20
50550;BME280;36505;52.512;13.460;2022-09-17T03:41:36;99818.28;;;12.49;86.32
50550;BME280;36505;52.512;13.460;2022-09-17T03:44:01;99821.84;;;12.49;85.60
50550;BME280;36505;52.512;13.460;2022-09-17T03:46:27;99811.69;;;12.50;85.22
50550;BME280;36505;52.512;13.460;2022-09-17T03:48:52;99827.09;;;12.51;85.38
50550;BME280;36505;52.512;13.460;2022-09-17T03:51:17;99828.72;;;12.52;85.77
50550;BME280;36505;52.512;13.460;2022-09-17T03:53:43;99832.56;;;12.51;85.34
50550;BME280;36505;52.512;13.460;2022-09-17T03:56:08;99830.09;;;12.49;85.16
50550;BME280;36505;52.512;13.460;2022-09-17T03:58:34;99826.00;;;12.47;84.80
50550;BME280;36505;52.512;13.460;2022-09-17T04:01:00;99822.16;;;12.48;85.28
50550;BME280;36505;52.512;13.460;2022-09-17T04:03:27;99829.03;;;12.45;85.33
50550;BME280;36505;52.512;13.460;2022-09-17T04:05:53;99830.41;;;12.43;85.32
50550;BME280;36505;52.512;13.460;2022-09-17T04:08:19;99833.69;;;12.45;85.49
50550;BME280;36505;52.512;13.460;2022-09-17T04:10:45;99836.16;;;12.46;85.47
50550;BME280;36505;52.512;13.460;2022-09-17T04:13:11;99833.97;;;12.48;85.34
50550;BME280;36505;52.512;13.460;2022-09-17T04:15:37;99838.06;;;12.51;85.97
50550;BME280;36505;52.512;13.460;2022-09-17T04:18:02;99830.94;;;12.50;85.75
50550;BME280;36505;52.512;13.460;2022-09-17T04:20:28;99837.78;;;12.52;85.80
50550;BME280;36505;52.512;13.460;2022-09-17T04:22:53;99836.97;;;12.52;85.56
50550;BME280;36505;52.512;13.460;2022-09-17T04:25:19;99832.03;;;12.49;85.21
50550;BME280;36505;52.512;13.460;2022-09-17T04:27:44;99832.84;;;12.49;84.96
50550;BME280;36505;52.512;13.460;2022-09-17T04:30:12;99841.38;;;12.53;84.37
50550;BME280;36505;52.512;13.460;2022-09-17T04:32:38;99833.69;;;12.55;84.61
50550;BME280;36505;52.512;13.460;2022-09-17T04:35:03;99834.19;;;12.57;84.59
50550;BME280;36505;52.512;13.460;2022-09-17T04:37:29;99832.56;;;12.56;84.27
50550;BME280;36505;52.512;13.460;2022-09-17T04:39:54;99833.38;;;12.56;84.26
50550;BME280;36505;52.512;13.460;2022-09-17T04:42:20;99840.25;;;12.59;84.53
50550;BME280;36505;52.512;13.460;2022-09-17T04:44:45;99844.34;;;12.56;84.02
50550;BME280;36505;52.512;13.460;2022-09-17T04:47:11;99842.44;;;12.57;83.74
50550;BME280;36505;52.512;13.460;2022-09-17T04:49:36;99831.75;;;12.55;83.66
50550;BME280;36505;52.512;13.460;2022-09-17T04:52:01;99841.63;;;12.56;83.79
50550;BME280;36505;52.512;13.460;2022-09-17T04:54:27;99843.81;;;12.59;83.77
50550;BME280;36505;52.512;13.460;2022-09-17T04:56:52;99844.09;;;12.58;83.59
50550;BME280;36505;52.512;13.460;2022-09-17T04:59:17;99843.53;;;12.56;83.42
50550;BME280;36505;52.512;13.460;2022-09-17T05:01:43;99838.34;;;12.54;83.44
50550;BME280;36505;52.512;13.460;2022-09-17T05:04:09;99844.94;;;12.53;83.27
50550;BME280;36505;52.512;13.460;2022-09-17T05:06:34;99846.84;;;12.53;83.25
50550;BME280;36505;52.512;13.460;2022-09-17T05:09:00;99856.75;;;12.54;83.07
50550;BME280;36505;52.512;13.460;2022-09-17T05:11:26;99839.72;;;12.52;83.14
50550;BME280;36505;52.512;13.460;2022-09-17T05:13:51;99849.03;;;12.56;83.21
50550;BME280;36505;52.512;13.460;2022-09-17T05:16:17;99852.63;;;12.51;83.38
50550;BME280;36505;52.512;13.460;2022-09-17T05:18:42;99860.56;;;12.58;83.52
50550;BME280;36505;52.512;13.460;2022-09-17T05:21:08;99864.13;;;12.58;83.71
50550;BME280;36505;52.512;13.460;2022-09-17T05:23:33;99868.53;;;12.59;83.82
50550;BME280;36505;52.512;13.460;2022-09-17T05:25:59;99858.41;;;12.55;84.03
50550;BME280;36505;52.512;13.460;2022-09-17T05:28:25;99864.13;;;12.58;83.52
50550;BME280;36505;52.512;13.460;2022-09-17T05:30:51;99869.09;;;12.61;83.14
50550;BME280;36505;52.512;13.460;2022-09-17T05:33:16;99864.41;;;12.67;83.07
50550;BME280;36505;52.512;13.460;2022-09-17T05:35:43;99863.81;;;12.70;82.99
50550;BME280;36505;52.512;13.460;2022-09-17T05:38:09;99872.88;;;12.76;83.60
50550;BME280;36505;52.512;13.460;2022-09-17T05:40:35;99867.91;;;12.78;83.53
50550;BME280;36505;52.512;13.460;2022-09-17T05:43:04;99873.13;;;12.79;82.89
50550;BME280;36505;52.512;13.460;2022-09-17T05:45:31;99872.88;;;12.81;82.62
50550;BME280;36505;52.512;13.460;2022-09-17T05:48:00;99874.75;;;12.85;82.54
50550;BME280;36505;52.512;13.460;2022-09-17T05:50:26;99867.91;;;12.83;82.83
50550;BME280;36505;52.512;13.460;2022-09-17T05:52:53;99879.13;;;12.91;82.87
50550;BME280;36505;52.512;13.460;2022-09-17T05:55:19;99881.34;;;12.94;82.99
50550;BME280;36505;52.512;13.460;2022-09-17T05:57:49;99880.78;;;12.92;82.56
50550;BME280;36505;52.512;13.460;2022-09-17T06:00:15;99884.34;;;12.93;82.62
50550;BME280;36505;52.512;13.460;2022-09-17T06:02:53;99890.41;;;12.95;82.61
50550;BME280;36505;52.512;13.460;2022-09-17T06:05:18;99881.34;;;12.94;82.58
50550;BME280;36505;52.512;13.460;2022-09-17T06:07:44;99891.22;;;12.95;82.44
50550;BME280;36505;52.512;13.460;2022-09-17T06:10:09;99889.53;;;12.99;82.86
50550;BME280;36505;52.512;13.460;2022-09-17T06:12:34;99880.47;;;12.99;82.51
50550;BME280;36505;52.512;13.460;2022-09-17T06:15:00;99884.88;;;13.00;82.62
50550;BME280;36505;52.512;13.460;2022-09-17T06:17:25;99890.34;;;13.05;82.29
50550;BME280;36505;52.512;13.460;2022-09-17T06:19:51;99898.59;;;13.05;82.33
50550;BME280;36505;52.512;13.460;2022-09-17T06:22:18;99899.97;;;13.07;81.87
50550;BME280;36505;52.512;13.460;2022-09-17T06:24:44;99907.63;;;13.11;81.84
50550;BME280;36505;52.512;13.460;2022-09-17T06:27:09;99902.72;;;13.13;81.85
50550;BME280;36505;52.512;13.460;2022-09-17T06:29:35;99905.19;;;13.14;81.87
50550;BME280;36505;52.512;13.460;2022-09-17T06:32:00;99885.94;;;13.04;81.66
50550;BME280;36505;52.512;13.460;2022-09-17T06:34:26;99905.72;;;13.11;81.48
50550;BME280;36505;52.512;13.460;2022-09-17T06:36:52;99903.53;;;13.13;81.95
50550;BME280;36505;52.512;13.460;2022-09-17T06:39:17;99903.53;;;13.13;81.19
50550;BME280;36505;52.512;13.460;2022-09-17T06:41:42;99907.13;;;13.14;81.17
50550;BME280;36505;52.512;13.460;2022-09-17T06:44:08;99908.22;;;13.13;80.95
50550;BME280;36505;52.512;13.460;2022-09-17T06:46:33;99910.09;;;13.12;81.11
50550;BME280;36505;52.512;13.460;2022-09-17T06:48:59;99891.16;;;13.05;81.17
50550;BME280;36505;52.512;13.460;2022-09-17T06:51:24;99908.19;;;13.18;80.81
50550;BME280;36505;52.512;13.460;2022-09-17T06:53:50;99912.28;;;13.25;80.47
50550;BME280;36505;52.512;13.460;2022-09-17T06:56:15;99921.50;;;13.50;80.14
50550;BME280;36505;52.512;13.460;2022-09-17T06:58:42;99917.66;;;13.51;79.38
50550;BME280;36505;52.512;13.460;2022-09-17T07:01:10;99915.75;;;13.46;79.30
50550;BME280;36505;52.512;13.460;2022-09-17T07:03:36;99914.66;;;13.47;79.62
50550;BME280;36505;52.512;13.460;2022-09-17T07:06:02;99917.66;;;13.45;78.91
50550;BME280;36505;52.512;13.460;2022-09-17T07:08:28;99923.22;;;13.40;78.05
50550;BME280;36505;52.512;13.460;2022-09-17T07:10:56;99918.84;;;13.34;78.46
50550;BME280;36505;52.512;13.460;2022-09-17T07:13:22;99923.50;;;13.34;78.00
50550;BME280;36505;52.512;13.460;2022-09-17T07:15:58;99923.25;;;13.35;77.92
50550;BME280;36505;52.512;13.460;2022-09-17T07:18:24;99925.72;;;13.37;77.28
50550;BME280;36505;52.512;13.460;2022-09-17T07:21:03;99928.19;;;13.33;76.96
50550;BME280;36505;52.512;13.460;2022-09-17T07:23:31;99922.13;;;13.31;76.46
50550;BME280;36505;52.512;13.460;2022-09-17T07:25:59;99922.97;;;13.32;76.72
50550;BME280;36505;52.512;13.460;2022-09-17T07:28:25;99922.97;;;13.32;76.79
50550;BME280;36505;52.512;13.460;2022-09-17T07:30:52;99921.03;;;13.32;76.76
50550;BME280;36505;52.512;13.460;2022-09-17T07:33:19;99927.31;;;13.43;77.05
50550;BME280;36505;52.512;13.460;2022-09-17T07:36:09;99925.59;;;13.52;76.85
50550;BME280;36505;52.512;13.460;2022-09-17T07:38:35;99919.28;;;13.57;75.86
50550;BME280;36505;52.512;13.460;2022-09-17T07:41:02;99909.91;;;13.58;75.49
50550;BME280;36505;52.512;13.460;2022-09-17T07:43:33;99917.34;;;13.57;75.73
50550;BME280;36505;52.512;13.460;2022-09-17T07:46:00;99917.84;;;13.64;75.66
50550;BME280;36505;52.512;13.460;2022-09-17T07:48:27;99918.09;;;13.68;74.88
50550;BME280;36505;52.512;13.460;2022-09-17T07:50:53;99919.97;;;13.72;74.64
50550;BME280;36505;52.512;13.460;2022-09-17T07:53:19;99925.75;;;13.76;74.18
50550;BME280;36505;52.512;13.460;2022-09-17T07:55:54;99924.09;;;13.75;74.24
50550;BME280;36505;52.512;13.460;2022-09-17T07:58:28;99920.50;;;13.79;74.43
50550;BME280;36505;52.512;13.460;2022-09-17T08:01:05;99919.94;;;13.82;73.65
50550;BME280;36505;52.512;13.460;2022-09-17T08:03:32;99924.34;;;13.83;73.55
50550;BME280;36505;52.512;13.460;2022-09-17T08:06:05;99928.47;;;13.81;73.15
50550;BME280;36505;52.512;13.460;2022-09-17T08:08:32;99933.94;;;13.86;72.82
50550;BME280;36505;52.512;13.460;2022-09-17T08:13:33;99918.50;;;13.90;73.03
50550;BME280;36505;52.512;13.460;2022-09-17T08:16:05;99916.28;;;13.92;73.16
50550;BME280;36505;52.512;13.460;2022-09-17T08:18:31;99917.09;;;13.93;72.74
50550;BME280;36505;52.512;13.460;2022-09-17T08:20:58;99925.00;;;14.04;72.14
50550;BME280;36505;52.512;13.460;2022-09-17T08:23:25;99927.94;;;14.13;71.88
50550;BME280;36505;52.512;13.460;2022-09-17T08:25:52;99920.66;;;14.32;71.01
50550;BME280;36505;52.512;13.460;2022-09-17T08:28:17;99919.28;;;14.63;69.35
50550;BME280;36505;52.512;13.460;2022-09-17T08:30:42;99929.03;;;14.80;68.51
50550;BME280;36505;52.512;13.460;2022-09-17T08:33:08;99924.78;;;15.35;67.79
50550;BME280;36505;52.512;13.460;2022-09-17T08:35:33;99923.41;;;16.12;64.25
50550;BME280;36505;52.512;13.460;2022-09-17T08:37:59;99920.66;;;17.05;61.70
50550;BME280;36505;52.512;13.460;2022-09-17T08:40:24;99911.53;;;18.39;57.42
50550;BME280;36505;52.512;13.460;2022-09-17T08:42:58;99902.41;;;18.70;54.50
50550;BME280;36505;52.512;13.460;2022-09-17T08:45:26;99914.44;;;18.34;54.68
50550;BME280;36505;52.512;13.460;2022-09-17T08:48:01;99909.63;;;18.04;55.02
50550;BME280;36505;52.512;13.460;2022-09-17T08:50:34;99917.38;;;18.91;53.37
50550;BME280;36505;52.512;13.460;2022-09-17T08:56:00;99919.91;;;21.08;48.00
50550;BME280;36505;52.512;13.460;2022-09-17T08:58:35;99919.81;;;21.84;46.55
50550;BME280;36505;52.512;13.460;2022-09-17T09:01:14;99922.53;;;21.04;46.69
50550;BME280;36505;52.512;13.460;2022-09-17T09:06:31;99929.56;;;21.48;43.87
50550;BME280;36505;52.512;13.460;2022-09-17T09:09:12;99933.50;;;21.97;43.05
50550;BME280;36505;52.512;13.460;2022-09-17T09:11:38;99931.16;;;22.74;41.27
50550;BME280;36505;52.512;13.460;2022-09-17T09:14:20;99947.50;;;22.96;41.67
50550;BME280;36505;52.512;13.460;2022-09-17T09:16:47;99932.19;;;23.39;40.49
50550;BME280;36505;52.512;13.460;2022-09-17T09:19:23;99937.81;;;24.03;39.43
50550;BME280;36505;52.512;13.460;2022-09-17T09:24:46;99950.16;;;24.98;35.77
50550;BME280;36505;52.512;13.460;2022-09-17T09:28:13;99932.81;;;24.21;36.77
50550;BME280;36505;52.512;13.460;2022-09-17T09:30:42;99950.09;;;24.38;37.43
50550;BME280;36505;52.512;13.460;2022-09-17T09:33:17;99944.06;;;23.72;37.96
50550;BME280;36505;52.512;13.460;2022-09-17T09:35:44;99951.44;;;22.83;39.58
50550;BME280;36505;52.512;13.460;2022-09-17T09:38:11;99953.25;;;22.46;39.50
50550;BME280;36505;52.512;13.460;2022-09-17T09:40:50;99941.75;;;22.48;39.87
50550;BME280;36505;52.512;13.460;2022-09-17T09:43:38;99948.41;;;22.22;40.90
50550;BME280;36505;52.512;13.460;2022-09-17T09:46:27;99959.34;;;21.77;41.90
50550;BME280;36505;52.512;13.460;2022-09-17T09:56:53;99969.28;;;19.87;45.37
50550;BME280;36505;52.512;13.460;2022-09-17T09:59:19;99972.91;;;19.39;47.22
50550;BME280;36505;52.512;13.460;2022-09-17T10:01:44;99957.22;;;18.95;48.72
50550;BME280;36505;52.512;13.460;2022-09-17T10:04:20;99974.50;;;18.70;50.86
50550;BME280;36505;52.512;13.460;2022-09-17T10:06:48;99979.00;;;18.57;51.55
50550;BME280;36505;52.512;13.460;2022-09-17T10:09:15;99973.16;;;18.59;51.29
50550;BME280;36505;52.512;13.460;2022-09-17T10:11:58;99978.75;;;18.89;51.31
50550;BME280;36505;52.512;13.460;2022-09-17T10:14:26;99975.53;;;19.05;51.08
50550;BME280;36505;52.512;13.460;2022-09-17T10:17:21;99969.88;;;19.18;49.30
50550;BME280;36505;52.512;13.460;2022-09-17T10:20:12;99975.31;;;19.32;49.22
50550;BME280;36505;52.512;13.460;2022-09-17T10:22:45;99965.59;;;19.52;48.56
50550;BME280;36505;52.512;13.460;2022-09-17T10:25:32;99975.94;;;19.60;48.22
50550;BME280;36505;52.512;13.460;2022-09-17T10:28:02;99971.13;;;19.43;48.88
50550;BME280;36505;52.512;13.460;2022-09-17T10:30:28;99969.63;;;19.94;47.79
50550;BME280;36505;52.512;13.460;2022-09-17T10:35:55;99982.91;;;20.05;46.09
50550;BME280;36505;52.512;13.460;2022-09-17T10:38:36;99977.63;;;19.95;45.16
50550;BME280;36505;52.512;13.460;2022-09-17T10:41:21;100005.84;;;19.63;46.27
50550;BME280;36505;52.512;13.460;2022-09-17T10:43:47;99988.34;;;18.92;49.05
50550;BME280;36505;52.512;13.460;2022-09-17T10:46:18;100001.88;;;18.40;51.33
50550;BME280;36505;52.512;13.460;2022-09-17T10:48:56;99998.91;;;18.01;53.20
50550;BME280;36505;52.512;13.460;2022-09-17T10:51:24;99996.78;;;17.84;53.91
50550;BME280;36505;52.512;13.460;2022-09-17T10:54:23;99993.91;;;17.75;54.46
50550;BME280;36505;52.512;13.460;2022-09-17T10:56:53;99995.38;;;17.73;54.45
50550;BME280;36505;52.512;13.460;2022-09-17T11:04:53;99993.91;;;17.75;54.53
50550;BME280;36505;52.512;13.460;2022-09-17T11:07:32;99995.47;;;17.68;54.41
50550;BME280;36505;52.512;13.460;2022-09-17T11:26:38;99984.22;;;18.81;48.09
50550;BME280;36505;52.512;13.460;2022-09-17T11:35:11;99975.56;;;18.38;46.96
50550;BME280;36505;52.512;13.460;2022-09-17T11:37:45;99975.03;;;18.27;46.95
50550;BME280;36505;52.512;13.460;2022-09-17T11:40:21;99979.47;;;18.14;46.97
50550;BME280;36505;52.512;13.460;2022-09-17T11:43:17;99973.59;;;17.94;47.85
50550;BME280;36505;52.512;13.460;2022-09-17T11:48:22;99985.63;;;17.75;48.09
50550;BME280;36505;52.512;13.460;2022-09-17T11:50:52;99993.63;;;17.63;48.35
50550;BME280;36505;52.512;13.460;2022-09-17T11:55:54;99980.28;;;17.52;49.29
50550;BME280;36505;52.512;13.460;2022-09-17T11:58:27;99986.16;;;17.64;49.36
50550;BME280;36505;52.512;13.460;2022-09-17T12:01:04;99979.19;;;17.66;49.23
50550;BME280;36505;52.512;13.460;2022-09-17T12:03:36;99980.00;;;17.67;49.09
50550;BME280;36505;52.512;13.460;2022-09-17T12:06:08;99966.66;;;17.69;49.27
50550;BME280;36505;52.512;13.460;2022-09-17T12:08:52;99973.22;;;17.73;50.60
50550;BME280;36505;52.512;13.460;2022-09-17T12:11:35;99957.09;;;17.75;50.01
50550;BME280;36505;52.512;13.460;2022-09-17T12:14:05;99965.38;;;17.89;50.25
50550;BME280;36505;52.512;13.460;2022-09-17T12:16:39;99962.19;;;17.95;49.59
50550;BME280;36505;52.512;13.460;2022-09-17T12:21:51;99961.31;;;17.86;49.38
50550;BME280;36505;52.512;13.460;2022-09-17T12:24:30;99967.88;;;17.76;48.67
50550;BME280;36505;52.512;13.460;2022-09-17T12:30:13;99968.72;;;17.36;48.17
50550;BME280;36505;52.512;13.460;2022-09-17T12:40:39;99947.81;;;17.44;48.91
50550;BME280;36505;52.512;13.460;2022-09-17T12:51:21;99952.09;;;17.36;49.76
50550;BME280;36505;52.512;13.460;2022-09-17T12:59:11;99943.63;;;17.32;50.68
50550;BME280;36505;52.512;13.460;2022-09-17T13:01:54;99949.22;;;17.27;50.23
50550;BME280;36505;52.512;13.460;2022-09-17T13:04:42;99951.09;;;17.18;49.59
50550;BME280;36505;52.512;13.460;2022-09-17T13:21:19;99944.31;;;16.97;45.83
50550;BME280;36505;52.512;13.460;2022-09-17T13:23:49;99939.81;;;17.01;45.41
50550;BME280;36505;52.512;13.460;2022-09-17T13:26:20;99947.81;;;17.03;45.20
50550;BME280;36505;52.512;13.460;2022-09-17T13:28:50;99944.81;;;16.99;45.25
50550;BME280;36505;52.512;13.460;2022-09-17T13:36:49;99939.50;;;16.89;47.37
50550;BME280;36505;52.512;13.460;2022-09-17T13:39:46;99949.22;;;16.86;47.38
50550;BME280;36505;52.512;13.460;2022-09-17T13:44:43;99943.06;;;16.76;48.10
50550;BME280;36505;52.512;13.460;2022-09-17T13:47:20;99938.94;;;16.73;48.19
50550;BME280;36505;52.512;13.460;2022-09-17T13:49:54;99937.94;;;16.69;48.14
50550;BME280;36505;52.512;13.460;2022-09-17T13:52:33;99934.66;;;16.67;48.27
50550;BME280;36505;52.512;13.460;2022-09-17T13:55:00;99941.72;;;16.73;48.19
50550;BME280;36505;52.512;13.460;2022-09-17T13:57:27;99940.59;;;16.74;46.75
50550;BME280;36505;52.512;13.460;2022-09-17T13:59:56;99927.69;;;16.70;46.88
50550;BME280;36505;52.512;13.460;2022-09-17T14:02:31;99922.38;;;16.73;47.12
50550;BME280;36505;52.512;13.460;2022-09-17T14:05:20;99932.81;;;16.76;47.39
50550;BME280;36505;52.512;13.460;2022-09-17T14:07:49;99924.53;;;16.76;46.74
50550;BME280;36505;52.512;13.460;2022-09-17T14:20:50;99932.31;;;16.74;47.51
50550;BME280;36505;52.512;13.460;2022-09-17T14:23:17;99921.47;;;16.78;47.42
50550;BME280;36505;52.512;13.460;2022-09-17T14:25:52;99925.25;;;16.82;46.49
50550;BME280;36505;52.512;13.460;2022-09-17T14:28:34;99924.84;;;16.88;46.01
50550;BME280;36505;52.512;13.460;2022-09-17T14:31:08;99934.50;;;16.91;44.51
50550;BME280;36505;52.512;13.460;2022-09-17T14:33:40;99915.59;;;16.79;44.95
50550;BME280;36505;52.512;13.460;2022-09-17T14:36:10;99926.19;;;16.77;45.02
50550;BME280;36505;52.512;13.460;2022-09-17T14:38:43;99953.91;;;16.72;45.60
50550;BME280;36505;52.512;13.460;2022-09-17T14:43:55;99970.16;;;16.41;47.20
50550;BME280;36505;52.512;13.460;2022-09-17T14:48:53;99954.00;;;16.16;48.06
50550;BME280;36505;52.512;13.460;2022-09-17T14:54:05;99966.03;;;16.06;48.90
50550;BME280;36505;52.512;13.460;2022-09-17T14:56:33;99965.50;;;16.04;49.53
50550;BME280;36505;52.512;13.460;2022-09-17T14:59:00;99961.41;;;16.02;49.92
50550;BME280;36505;52.512;13.460;2022-09-17T15:01:27;99953.88;;;16.07;49.57
50550;BME280;36505;52.512;13.460;2022-09-17T15:06:37;99958.84;;;16.05;48.73
50550;BME280;36505;52.512;13.460;2022-09-17T15:09:02;99945.50;;;15.94;49.25
50550;BME280;36505;52.512;13.460;2022-09-17T15:11:30;99962.72;;;16.04;48.99
50550;BME280;36505;52.512;13.460;2022-09-17T15:13:57;99971.63;;;16.01;47.97
50550;BME280;36505;52.512;13.460;2022-09-17T15:16:25;99959.53;;;15.97;47.00
50550;BME280;36505;52.512;13.460;2022-09-17T15:18:59;99953.88;;;15.89;47.06
50550;BME280;36505;52.512;13.460;2022-09-17T15:21:29;99946.78;;;15.83;47.14
50550;BME280;36505;52.512;13.460;2022-09-17T15:26:41;99954.09;;;15.73;47.81
50550;BME280;36505;52.512;13.460;2022-09-17T15:29:11;99949.38;;;15.55;48.08
50550;BME280;36505;52.512;13.460;2022-09-17T15:31:36;99951.47;;;15.39;48.39
50550;BME280;36505;52.512;13.460;2022-09-17T15:34:02;99962.16;;;15.22;48.77
50550;BME280;36505;52.512;13.460;2022-09-17T15:36:30;99960.72;;;15.06;49.34
50550;BME280;36505;52.512;13.460;2022-09-17T15:38:56;99957.56;;;14.89;49.40
50550;BME280;36505;52.512;13.460;2022-09-17T15:41:35;99947.84;;;14.73;49.54
50550;BME280;36505;52.512;13.460;2022-09-17T15:44:24;99956.97;;;14.68;50.21
50550;BME280;36505;52.512;13.460;2022-09-17T15:46:51;99950.78;;;14.52;50.31
50550;BME280;36505;52.512;13.460;2022-09-17T15:49:30;99962.44;;;14.44;50.84
50550;BME280;36505;52.512;13.460;2022-09-17T15:52:26;99934.22;;;14.23;51.17